Erie, Pennsylvania
Current Conditions -  °F | °C
As of 4:51 AM on Thursday 29 Jan 2015 (Local Time) from KERI Reporting Station
Broken Clouds Broken Clouds  
Wind Chill: 14°   Ceiling: 10000
Heat Index: 26°   Visibility: 10mi
Dew Point:   Wind: 15mph
Humidity: 41%   Direction: 160°SSE
Pressure: 30.08"   Gusts: NA
Location:  42.13°N, 80.08°W
Report Text: KERI 290951Z 16013KT 10SM BKN100 M03/M15 A3008 RMK AO2 SLP198 T10331150
Loading
Personal Weather Stations






























Interactive Weather Map New forecast layout! Learn more

10-Day Weather Forecast

Advertisements
Track Severe Weather on mobile